Time;durP1;ratioP1;P1;durP2;ratioP2;P2;SDS_P1;SDS_P2;PMS_P1;PMS_P2;Temp;Humidity;BMP_temperature;BMP_pressure;BME280_temperature;BME280_humidity;BME280_pressure;Samples;Min_cycle;Max_cycle;Signal;HPM_P1;HPM_P2
2021/04/21 00:01:46;;;;;;;13.65;5.65;;;;;;;4.32;77.28;101576.56;5016576;28;20079;-77
2021/04/21 00:04:14;;;;;;;15.07;5.40;;;;;;;4.41;77.18;101594.22;5038434;28;20608;-77
2021/04/21 00:06:40;;;;;;;13.02;5.20;;;;;;;4.28;75.69;101577.66;5023006;28;20044;-79
2021/04/21 00:09:10;;;;;;;17.10;5.57;;;;;;;4.29;76.28;101594.88;5037757;28;20045;-76
2021/04/21 00:11:38;;;;;;;16.77;5.60;;;;;;;4.30;76.88;101591.38;5034680;28;20128;-77
2021/04/21 00:14:04;;;;;;;11.18;5.45;;;;;;;4.18;76.84;101579.06;5021964;28;20049;-76
2021/04/21 00:16:33;;;;;;;10.88;5.30;;;;;;;4.21;77.37;101581.50;5031723;28;20045;-77
2021/04/21 00:19:01;;;;;;;12.52;5.35;;;;;;;4.18;76.69;101587.72;5014931;28;20045;-78
2021/04/21 00:21:27;;;;;;;14.93;5.22;;;;;;;4.20;77.96;101579.81;5016171;28;20074;-76
2021/04/21 00:23:53;;;;;;;12.32;5.07;;;;;;;4.13;78.72;101571.53;5011099;28;20061;-77
2021/04/21 00:26:21;;;;;;;12.13;5.43;;;;;;;4.17;78.44;101582.59;5024176;28;20046;-79
2021/04/21 00:28:51;;;;;;;14.05;5.05;;;;;;;4.18;78.04;101579.94;5001775;28;20044;-78
2021/04/21 00:31:18;;;;;;;13.63;5.75;;;;;;;4.14;78.36;101574.97;5048822;28;20040;-76
2021/04/21 00:33:48;;;;;;;16.13;6.55;;;;;;;4.02;78.83;101566.09;5016152;28;20048;-81
2021/04/21 00:36:16;;;;;;;12.60;5.55;;;;;;;4.00;78.64;101573.13;5010197;28;20555;-79
2021/04/21 00:38:43;;;;;;;13.85;5.70;;;;;;;4.04;79.31;101572.03;5024775;28;20132;-78
2021/04/21 00:41:36;;;;;;;15.38;6.10;;;;;;;3.98;79.61;101572.38;5039564;28;20045;-77
2021/04/21 00:44:30;;;;;;;14.00;5.97;;;;;;;4.03;79.44;101565.16;5025696;28;20048;-76
2021/04/21 00:47:01;;;;;;;12.77;5.47;;;;;;;4.02;79.71;101572.13;5015254;28;20049;-78
2021/04/21 00:49:42;;;;;;;17.23;6.10;;;;;;;3.99;80.36;101567.09;5015212;28;20125;-78
2021/04/21 00:52:22;;;;;;;13.43;6.05;;;;;;;3.90;81.01;101565.03;5016167;28;20131;-77
2021/04/21 00:55:09;;;;;;;16.63;6.35;;;;;;;3.83;80.79;101569.69;5052109;28;20045;-78
2021/04/21 00:57:57;;;;;;;12.35;5.57;;;;;;;3.86;80.23;101572.13;5014746;28;20052;-78
2021/04/21 01:00:29;;;;;;;12.07;6.00;;;;;;;3.84;80.85;101568.78;5013509;28;20041;-77
2021/04/21 01:03:15;;;;;;;11.60;6.25;;;;;;;3.85;80.58;101561.81;5022948;28;20140;-78
2021/04/21 01:05:50;;;;;;;15.88;6.45;;;;;;;3.89;80.61;101573.72;5051457;28;20089;-78
2021/04/21 01:08:25;;;;;;;11.77;6.45;;;;;;;3.86;81.18;101569.53;5025012;28;20135;-77
2021/04/21 01:11:00;;;;;;;11.43;6.57;;;;;;;3.88;80.54;101567.69;5007150;28;20057;-77
2021/04/21 01:13:33;;;;;;;12.02;5.82;;;;;;;3.89;80.97;101565.94;5027591;28;21276;-78
2021/04/21 01:16:00;;;;;;;14.35;6.65;;;;;;;3.90;81.14;101565.84;5024991;28;20053;-77
2021/04/21 01:18:29;;;;;;;14.30;7.03;;;;;;;3.86;81.88;101563.47;5020043;28;20041;-80
2021/04/21 01:21:05;;;;;;;11.90;6.78;;;;;;;3.82;82.44;101573.19;5029551;28;20053;-78
2021/04/21 01:23:49;;;;;;;16.25;6.63;;;;;;;3.81;82.38;101566.34;5025845;28;20751;-77
2021/04/21 01:26:22;;;;;;;13.52;6.45;;;;;;;3.83;82.51;101561.91;5020255;28;20049;-78
2021/04/21 01:28:52;;;;;;;16.15;8.13;;;;;;;3.83;83.07;101564.50;5014751;28;20032;-78
2021/04/21 01:31:20;;;;;;;10.43;6.85;;;;;;;3.80;83.60;101562.06;5028292;28;20096;-76
2021/04/21 01:33:49;;;;;;;16.17;8.18;;;;;;;3.79;84.59;101564.75;5037930;28;20084;-77
2021/04/21 01:36:18;;;;;;;17.08;7.68;;;;;;;3.81;84.03;101561.16;5015204;28;20051;-77
2021/04/21 01:38:47;;;;;;;13.25;8.50;;;;;;;3.79;84.79;101559.56;5020471;28;20522;-78
2021/04/21 01:41:17;;;;;;;15.48;7.72;;;;;;;3.75;84.09;101566.69;5047928;28;20048;-78
2021/04/21 01:43:48;;;;;;;15.32;7.40;;;;;;;3.72;83.63;101569.44;5014221;28;20506;-78
2021/04/21 01:46:16;;;;;;;15.15;7.90;;;;;;;3.70;83.70;101560.88;5030853;28;20522;-76
2021/04/21 01:48:43;;;;;;;13.45;8.23;;;;;;;3.76;84.06;101554.53;5025984;28;20136;-78
2021/04/21 01:51:40;;;;;;;14.10;7.90;;;;;;;3.71;83.98;101565.13;5027126;28;20056;-76
2021/04/21 01:54:12;;;;;;;16.75;8.30;;;;;;;3.72;84.03;101564.25;5032956;28;20049;-79
2021/04/21 01:56:53;;;;;;;16.45;8.02;;;;;;;3.69;84.99;101556.59;5014816;28;20128;-77
2021/04/21 01:59:24;;;;;;;16.38;9.50;;;;;;;3.61;85.85;101559.59;5027522;28;20805;-77
2021/04/21 02:02:00;;;;;;;13.50;9.38;;;;;;;3.56;85.43;101553.84;5026656;28;20055;-76
2021/04/21 02:04:55;;;;;;;12.95;8.43;;;;;;;3.62;84.69;101552.69;5014163;28;20067;-78
2021/04/21 02:07:59;;;;;;;17.02;9.57;;;;;;;3.55;85.73;101553.94;5009364;28;21265;-79
2021/04/21 02:10:40;;;;;;;17.52;8.52;;;;;;;3.58;85.85;101557.19;5007386;28;21142;-78
2021/04/21 02:13:27;;;;;;;17.40;9.45;;;;;;;3.56;85.88;101558.19;5026907;28;20044;-77
2021/04/21 02:16:19;;;;;;;20.50;9.18;;;;;;;3.47;87.30;101556.94;5028902;28;20502;-77
2021/04/21 02:19:31;;;;;;;15.40;8.98;;;;;;;3.38;86.43;101545.28;5022378;28;20038;-78
2021/04/21 02:22:33;;;;;;;16.05;9.23;;;;;;;3.44;86.24;101557.06;4954320;28;20073;-76
2021/04/21 02:25:29;;;;;;;22.05;10.48;;;;;;;3.42;86.68;101557.16;4947407;28;20528;-77
2021/04/21 02:28:20;;;;;;;17.73;10.45;;;;;;;3.40;85.72;101553.81;5024091;28;20055;-78
2021/04/21 02:31:02;;;;;;;20.67;9.45;;;;;;;3.37;85.60;101551.38;5025290;28;20045;-79
2021/04/21 02:33:38;;;;;;;17.48;10.10;;;;;;;3.27;85.88;101550.19;5010676;28;20046;-77
2021/04/21 02:36:11;;;;;;;14.27;9.15;;;;;;;3.26;85.09;101548.50;5026942;28;20076;-79
2021/04/21 02:38:40;;;;;;;;;;;;;;;3.25;85.40;101552.00;5018980;28;20554;-78
2021/04/21 02:41:08;;;;;;;17.73;9.30;;;;;;;3.22;85.08;101546.97;5022986;28;19928;-77
2021/04/21 02:43:52;;;;;;;15.85;9.38;;;;;;;3.22;84.79;101552.16;5015481;28;20079;-78
2021/04/21 02:46:22;;;;;;;20.40;9.57;;;;;;;3.19;84.99;101545.38;5029020;28;20052;-76
2021/04/21 02:49:33;;;;;;;17.15;9.43;;;;;;;3.26;84.21;101551.94;5036211;28;20513;-77
2021/04/21 02:52:20;;;;;;;17.45;9.73;;;;;;;3.17;84.48;101551.56;5010322;28;20048;-77
2021/04/21 02:54:55;;;;;;;21.40;9.10;;;;;;;3.11;84.80;101552.72;5023153;28;20145;-76
2021/04/21 02:57:37;;;;;;;16.48;9.48;;;;;;;3.08;84.47;101553.72;5039054;28;20041;-75
2021/04/21 03:00:26;;;;;;;12.88;8.80;;;;;;;3.02;84.23;101556.63;5014671;28;20059;-76
2021/04/21 03:03:05;;;;;;;14.15;9.15;;;;;;;2.96;84.31;101556.94;5064551;28;20040;-77
2021/04/21 03:05:33;;;;;;;16.48;9.80;;;;;;;2.93;84.14;101557.91;5010348;28;20199;-77
2021/04/21 03:08:20;;;;;;;16.42;8.55;;;;;;;2.88;84.44;101551.28;5027265;28;20048;-78
2021/04/21 03:11:00;;;;;;;18.48;9.82;;;;;;;2.82;86.47;101551.59;5009634;28;21138;-77
2021/04/21 03:13:29;;;;;;;17.40;9.93;;;;;;;2.84;85.65;101545.41;5013046;28;20518;-78
2021/04/21 03:16:03;;;;;;;21.35;10.65;;;;;;;2.79;85.96;101541.38;5014394;28;20106;-76
2021/04/21 03:18:30;;;;;;;16.50;9.75;;;;;;;2.80;85.92;101546.47;5046012;28;20573;-75
2021/04/21 03:21:07;;;;;;;18.17;9.45;;;;;;;2.78;85.84;101542.31;5030154;28;20041;-79
2021/04/21 03:23:38;;;;;;;18.25;10.10;;;;;;;2.75;86.35;101535.53;5027223;28;20039;-79
2021/04/21 03:26:04;;;;;;;17.80;9.98;;;;;;;2.80;86.23;101543.06;5024183;28;20033;-77
2021/04/21 03:28:33;;;;;;;22.27;11.00;;;;;;;2.77;87.91;101544.06;5041840;28;20033;-78
2021/04/21 03:31:02;;;;;;;18.33;10.20;;;;;;;2.70;87.65;101542.69;5029065;28;20694;-77
2021/04/21 03:33:41;;;;;;;16.88;10.38;;;;;;;2.70;87.51;101543.50;5030119;28;20048;-79
2021/04/21 03:36:07;;;;;;;23.10;10.00;;;;;;;2.62;87.15;101532.72;5014339;28;20056;-77
2021/04/21 03:38:33;;;;;;;19.17;9.82;;;;;;;2.62;86.58;101535.28;5009650;28;20065;-79
2021/04/21 03:41:00;;;;;;;19.60;10.52;;;;;;;2.66;87.30;101541.16;5034434;28;20029;-77
2021/04/21 03:43:27;;;;;;;20.33;9.85;;;;;;;2.60;87.26;101537.13;5022832;28;20045;-76
2021/04/21 03:45:53;;;;;;;19.73;10.63;;;;;;;2.61;87.26;101530.19;5046166;28;20075;-77
2021/04/21 03:48:19;;;;;;;16.98;9.98;;;;;;;2.51;87.20;101529.81;5020061;28;20068;-78
2021/04/21 03:50:50;;;;;;;21.15;10.68;;;;;;;2.50;86.99;101528.13;5013465;28;20065;-76
2021/04/21 03:53:18;;;;;;;28.52;11.05;;;;;;;2.57;86.55;101542.44;5030541;28;20037;-78
2021/04/21 03:55:45;;;;;;;17.10;10.93;;;;;;;2.47;87.01;101523.94;5011551;28;20048;-79
2021/04/21 03:58:13;;;;;;;19.25;9.80;;;;;;;2.48;87.14;101537.72;5031034;28;20037;-77
2021/04/21 04:00:41;;;;;;;16.80;10.40;;;;;;;2.40;87.33;101526.91;5033021;28;20052;-77
2021/04/21 04:03:22;;;;;;;18.80;9.73;;;;;;;2.44;86.83;101536.19;5026570;28;20048;-76
2021/04/21 04:06:04;;;;;;;23.38;11.18;;;;;;;2.42;86.98;101530.25;5025291;28;20041;-78
2021/04/21 04:08:44;;;;;;;17.27;10.18;;;;;;;2.40;86.88;101537.25;5031549;28;20055;-80
2021/04/21 04:11:13;;;;;;;18.40;10.57;;;;;;;2.38;86.99;101536.50;5016317;28;20115;-78
2021/04/21 04:13:42;;;;;;;23.55;9.27;;;;;;;2.31;86.71;101523.81;5025193;28;20044;-79
2021/04/21 04:16:10;;;;;;;23.88;9.88;;;;;;;2.28;86.82;101517.94;5035865;28;20060;-79
2021/04/21 04:18:41;;;;;;;19.27;9.57;;;;;;;2.40;87.20;101529.50;5039908;28;20497;-80
2021/04/21 04:21:10;;;;;;;18.13;9.95;;;;;;;2.40;87.20;101529.50;5070701;28;20076;-77
2021/04/21 04:23:42;;;;;;;20.33;10.75;;;;;;;2.38;86.90;101532.16;5012230;28;20049;-78
2021/04/21 04:26:09;;;;;;;16.30;10.55;;;;;;;2.39;87.14;101525.22;5020218;28;20044;-77
2021/04/21 04:28:36;;;;;;;17.88;10.65;;;;;;;2.32;86.90;101528.09;5055267;28;20037;-78
2021/04/21 04:31:04;;;;;;;20.70;10.30;;;;;;;2.42;87.17;101532.84;5031360;28;20514;-78
2021/04/21 04:33:30;;;;;;;20.35;10.50;;;;;;;2.48;86.97;101543.72;5014975;28;20037;-78
2021/04/21 04:35:57;;;;;;;18.48;10.35;;;;;;;2.48;87.27;101537.72;5021194;28;20697;-78
2021/04/21 04:38:23;;;;;;;18.30;10.93;;;;;;;2.51;87.16;101542.75;5032768;28;20174;-78
2021/04/21 04:40:53;;;;;;;18.23;11.27;;;;;;;2.52;87.30;101536.66;5014245;28;20094;-80
2021/04/21 04:43:21;;;;;;;20.83;10.85;;;;;;;2.63;87.02;101542.13;5031979;28;20121;-77
2021/04/21 04:46:00;;;;;;;17.40;10.52;;;;;;;2.65;87.30;101534.28;5034333;28;20043;-75
2021/04/21 04:48:35;;;;;;;22.65;10.40;;;;;;;2.72;87.19;101533.09;5014364;28;20033;-78
2021/04/21 04:51:05;;;;;;;20.23;11.65;;;;;;;2.80;87.05;101543.06;5051382;28;20076;-78
2021/04/21 04:53:31;;;;;;;18.10;10.80;;;;;;;2.91;87.16;101539.00;5034260;28;20555;-80
2021/04/21 04:55:59;;;;;;;19.88;11.50;;;;;;;3.00;87.79;101535.13;5016872;28;20045;-78
2021/04/21 04:58:28;;;;;;;22.25;12.45;;;;;;;3.16;87.47;101549.88;5021473;28;20158;-78
2021/04/21 05:01:02;;;;;;;24.23;12.52;;;;;;;3.27;88.43;101551.00;5047251;28;20392;-78
2021/04/21 05:03:31;;;;;;;20.40;13.30;;;;;;;3.40;88.98;101555.56;5035622;28;20418;-77
2021/04/21 05:05:58;;;;;;;21.52;12.82;;;;;;;3.49;89.02;101553.31;5035086;28;20106;-76
2021/04/21 05:08:28;;;;;;;24.25;13.70;;;;;;;3.55;88.81;101552.16;5032717;28;20029;-78
2021/04/21 05:11:04;;;;;;;24.45;13.93;;;;;;;3.64;88.51;101556.88;5046408;28;20098;-79
2021/04/21 05:13:38;;;;;;;21.17;13.07;;;;;;;3.69;88.65;101554.88;5025295;28;20051;-79
2021/04/21 05:16:07;;;;;;;25.35;13.60;;;;;;;3.72;88.03;101559.03;5035926;28;20064;-78
2021/04/21 05:19:10;;;;;;;22.15;13.18;;;;;;;3.75;88.16;101558.91;5049895;28;20059;-78
2021/04/21 05:22:20;;;;;;;20.00;13.00;;;;;;;3.79;87.80;101568.19;5031915;28;20037;-77
2021/04/21 05:25:13;;;;;;;22.05;12.70;;;;;;;3.89;88.15;101566.75;5036404;28;20051;-77
2021/04/21 05:28:00;;;;;;;24.10;13.68;;;;;;;4.01;88.03;101562.69;5017734;28;20079;-77
2021/04/21 05:30:51;;;;;;;23.75;12.38;;;;;;;4.16;87.67;101567.94;5032403;28;20075;-76
2021/04/21 05:33:19;;;;;;;22.55;13.55;;;;;;;4.32;87.70;101560.97;5013200;28;20049;-76
2021/04/21 05:36:09;;;;;;;22.00;13.40;;;;;;;4.56;87.09;101563.94;5053719;28;20078;-77
2021/04/21 05:38:54;;;;;;;28.95;13.35;;;;;;;4.74;87.00;101559.44;5019432;28;20060;-81
2021/04/21 05:41:44;;;;;;;25.85;13.80;;;;;;;4.87;85.65;101562.16;5035030;28;20040;-77
2021/04/21 05:44:54;;;;;;;24.55;12.45;;;;;;;4.99;85.09;101565.81;5013623;28;20501;-79
2021/04/21 05:47:47;;;;;;;29.65;12.77;;;;;;;5.15;85.08;101566.59;5040018;28;20069;-78
2021/04/21 05:50:32;;;;;;;;;;;;;;;5.37;84.77;101562.69;5014105;28;20060;-76
2021/04/21 05:53:38;;;;;;;26.70;13.23;;;;;;;5.56;84.20;101567.63;5025648;28;20008;-77
2021/04/21 05:56:04;;;;;;;28.17;14.13;;;;;;;5.71;83.73;101568.44;5013594;28;20076;-77
2021/04/21 05:59:04;;;;;;;25.45;13.57;;;;;;;5.85;83.70;101565.81;5045319;28;20041;-77
2021/04/21 06:01:35;;;;;;;25.00;13.63;;;;;;;6.02;82.60;101565.63;5050336;28;20133;-78
2021/04/21 06:04:01;;;;;;;22.10;13.80;;;;;;;6.13;83.55;101564.94;5054455;28;20056;-76
2021/04/21 06:06:28;;;;;;;27.83;15.18;;;;;;;6.35;83.43;101561.00;5033490;28;20041;-78
2021/04/21 06:08:54;;;;;;;37.00;15.90;;;;;;;6.67;80.56;101563.25;5018867;28;20048;-78
2021/04/21 06:11:25;;;;;;;37.22;15.38;;;;;;;6.85;80.48;101569.03;5040305;28;20041;-77
2021/04/21 06:13:58;;;;;;;30.63;15.27;;;;;;;7.00;79.86;101563.63;5048918;28;20490;-77
2021/04/21 06:16:24;;;;;;;;;;;;;;;7.05;80.57;101567.72;5033469;28;20051;-79
2021/04/21 06:18:54;;;;;;;46.67;15.30;;;;;;;7.13;80.38;101575.84;5049506;28;19925;-77
2021/04/21 06:21:22;;;;;;;34.60;15.32;;;;;;;7.26;78.69;101579.28;5050299;28;20099;-75
2021/04/21 06:23:48;;;;;;;37.00;14.35;;;;;;;7.46;77.51;101579.69;5011903;28;20544;-81
2021/04/21 06:26:20;;;;;;;26.95;14.38;;;;;;;7.73;76.68;101576.94;5030387;28;20171;-77
2021/04/21 06:29:08;;;;;;;37.75;15.05;;;;;;;8.03;74.72;101579.16;5037420;28;20046;-79
2021/04/21 06:31:45;;;;;;;22.75;14.45;;;;;;;8.17;75.04;101584.25;5048779;28;20469;-78
2021/04/21 06:34:13;;;;;;;28.23;15.02;;;;;;;8.31;73.50;101578.03;5011572;28;20042;-76
2021/04/21 06:36:42;;;;;;;31.70;14.10;;;;;;;8.44;72.35;101580.63;5012858;28;20045;-77
2021/04/21 06:39:09;;;;;;;32.25;14.45;;;;;;;8.76;70.26;101575.63;5048860;28;20048;-81
2021/04/21 06:41:35;;;;;;;26.05;14.38;;;;;;;8.88;70.31;101573.88;5015374;28;20045;-77
2021/04/21 06:44:01;;;;;;;27.38;13.80;;;;;;;8.95;69.57;101582.09;5046512;28;20040;-76
2021/04/21 06:46:27;;;;;;;23.65;13.38;;;;;;;9.16;69.15;101582.25;5031876;28;20036;-76
2021/04/21 06:49:03;;;;;;;26.75;14.20;;;;;;;9.27;69.68;101577.03;5050061;28;20175;-76
2021/04/21 06:51:32;;;;;;;25.42;13.77;;;;;;;9.46;70.66;101579.06;5017265;28;20041;-77
2021/04/21 06:53:59;;;;;;;21.40;13.30;;;;;;;9.80;66.07;101588.72;5021786;28;20068;-76
2021/04/21 06:56:30;;;;;;;26.30;12.90;;;;;;;9.80;67.43;101586.09;5051219;28;20049;-78
2021/04/21 06:58:57;;;;;;;24.27;13.55;;;;;;;9.69;65.93;101587.75;5023609;28;20173;-77
2021/04/21 07:01:27;;;;;;;23.60;12.55;;;;;;;9.62;66.96;101583.94;5069323;28;20044;-76
2021/04/21 07:04:14;;;;;;;26.63;13.55;;;;;;;9.61;68.19;101590.16;5044319;28;20148;-77
2021/04/21 07:06:43;;;;;;;20.48;12.60;;;;;;;9.77;66.45;101592.38;5047698;28;20056;-78
2021/04/21 07:09:18;;;;;;;22.55;13.02;;;;;;;9.90;67.30;101587.00;5012216;28;20041;-76
2021/04/21 07:11:45;;;;;;;23.35;12.57;;;;;;;10.07;65.01;101598.78;5029321;28;20076;-78
2021/04/21 07:14:11;;;;;;;26.08;12.98;;;;;;;10.20;65.60;101582.91;5038806;28;20045;-75
2021/04/21 07:16:40;;;;;;;26.00;13.18;;;;;;;10.13;64.61;101588.66;5016406;28;20045;-79
2021/04/21 07:19:10;;;;;;;25.38;11.98;;;;;;;10.34;64.19;101590.53;5011633;28;20042;-78
2021/04/21 07:21:40;;;;;;;26.25;12.93;;;;;;;10.39;65.05;101590.97;4996364;28;20037;-77
2021/04/21 07:24:07;;;;;;;19.98;12.63;;;;;;;10.44;62.76;101590.63;5036998;28;20068;-75
2021/04/21 07:26:48;;;;;;;22.48;11.93;;;;;;;10.54;64.09;101591.53;5015986;28;20402;-77
2021/04/21 07:29:25;;;;;;;27.10;12.48;;;;;;;10.71;63.07;101590.13;5031146;28;20067;-75
2021/04/21 07:31:52;;;;;;;25.95;12.55;;;;;;;10.87;63.57;101587.09;5015076;28;20045;-76
2021/04/21 07:34:29;;;;;;;23.42;12.30;;;;;;;10.79;61.33;101587.69;5049585;28;20093;-76
2021/04/21 07:36:56;;;;;;;23.20;12.30;;;;;;;10.94;61.68;101587.41;5015760;28;20044;-75
2021/04/21 07:39:31;;;;;;;22.17;11.90;;;;;;;11.15;60.90;101590.00;5013286;28;20179;-77
2021/04/21 07:41:57;;;;;;;22.42;12.10;;;;;;;11.04;61.25;101589.13;5023386;28;20041;-78
2021/04/21 07:44:36;;;;;;;21.35;12.02;;;;;;;11.23;61.74;101590.22;5031108;28;20694;-77
2021/04/21 07:47:05;;;;;;;29.45;11.65;;;;;;;11.25;60.48;101590.91;4998955;28;20053;-78
2021/04/21 07:49:31;;;;;;;18.08;11.80;;;;;;;11.42;60.65;101595.53;5034483;28;20045;-76
2021/04/21 07:51:59;;;;;;;26.63;11.38;;;;;;;11.42;60.18;101592.09;5051258;28;20045;-77
2021/04/21 07:54:27;;;;;;;22.45;11.50;;;;;;;11.52;61.35;101586.88;5050981;28;20049;-79
2021/04/21 07:56:56;;;;;;;23.65;11.93;;;;;;;11.57;59.97;101584.69;5035679;28;20848;-77
2021/04/21 07:59:33;;;;;;;20.70;11.10;;;;;;;11.63;60.07;101594.66;5050470;28;20069;-75
2021/04/21 08:02:03;;;;;;;22.08;11.10;;;;;;;11.85;60.67;101598.91;5043570;28;20105;-77
2021/04/21 08:04:29;;;;;;;20.08;11.23;;;;;;;12.03;59.01;101602.56;5053035;28;21001;-76
2021/04/21 08:07:00;;;;;;;19.00;11.30;;;;;;;12.03;60.54;101607.81;5035143;28;20064;-76
2021/04/21 08:09:33;;;;;;;19.42;11.07;;;;;;;11.86;60.50;101606.63;5049498;28;20053;-79
2021/04/21 08:12:07;;;;;;;18.40;10.68;;;;;;;11.93;61.11;101614.03;5035033;28;20086;-76
2021/04/21 08:14:37;;;;;;;17.17;11.20;;;;;;;11.87;61.29;101610.13;5028473;28;20041;-78
2021/04/21 08:17:03;;;;;;;17.85;11.20;;;;;;;12.02;62.44;101610.59;5035728;28;20148;-76
2021/04/21 08:19:35;;;;;;;22.33;12.32;;;;;;;12.23;61.98;101621.84;5017584;28;20546;-75
2021/04/21 08:22:00;;;;;;;22.33;13.88;;;;;;;12.22;61.26;101611.47;5018119;28;20045;-75
2021/04/21 08:24:26;;;;;;;22.98;14.50;;;;;;;12.28;61.50;101613.53;5018313;28;20098;-78
2021/04/21 08:26:53;;;;;;;25.60;14.75;;;;;;;12.27;60.86;101614.50;5033949;28;20037;-77
2021/04/21 08:29:19;;;;;;;21.17;13.93;;;;;;;12.45;61.54;101627.81;5034894;28;20585;-75
2021/04/21 08:31:50;;;;;;;28.77;16.75;;;;;;;12.31;61.77;101630.88;5034393;28;20092;-76
2021/04/21 08:34:16;;;;;;;31.48;17.60;;;;;;;12.17;61.75;101625.03;5014196;28;20041;-76
2021/04/21 08:36:41;;;;;;;34.83;17.50;;;;;;;12.11;62.84;101629.97;4998936;28;20414;-77
2021/04/21 08:39:08;;;;;;;29.55;16.50;;;;;;;12.31;63.33;101630.88;5013971;28;20492;-75
2021/04/21 08:41:37;;;;;;;32.00;17.27;;;;;;;12.40;63.03;101632.69;5015007;28;20063;-76
2021/04/21 08:44:04;;;;;;;35.80;19.17;;;;;;;12.43;62.98;101635.00;5018735;28;20052;-76
2021/04/21 08:46:30;;;;;;;35.55;19.02;;;;;;;12.20;63.78;101626.53;4998021;28;20041;-76
2021/04/21 08:48:57;;;;;;;29.30;18.60;;;;;;;12.41;64.87;101636.97;4998740;28;20045;-77
2021/04/21 08:51:24;;;;;;;36.30;20.33;;;;;;;12.45;65.99;101646.22;5016564;28;20053;-77
2021/04/21 08:53:56;;;;;;;35.97;21.00;;;;;;;12.58;64.02;101646.81;5034558;28;20052;-78
2021/04/21 08:56:22;;;;;;;30.85;20.13;;;;;;;12.33;63.49;101653.44;5033708;28;20041;-78
2021/04/21 08:58:50;;;;;;;38.92;21.00;;;;;;;12.35;64.27;101654.13;5017583;28;20059;-74
2021/04/21 09:01:17;;;;;;;34.58;21.00;;;;;;;12.27;64.57;101657.44;5034740;28;20048;-79
2021/04/21 09:03:46;;;;;;;34.75;23.08;;;;;;;12.52;64.92;101668.41;5038862;28;20567;-74
2021/04/21 09:06:15;;;;;;;41.95;23.75;;;;;;;12.08;65.38;101660.84;5051011;28;20128;-77
2021/04/21 09:08:41;;;;;;;44.30;25.60;;;;;;;11.60;66.49;101657.97;5071616;28;20037;-78
2021/04/21 09:11:07;;;;;;;40.70;25.55;;;;;;;11.54;66.86;101664.59;5050498;28;20060;-76
2021/04/21 09:13:32;;;;;;;45.17;26.63;;;;;;;11.50;68.49;101665.81;5035256;28;20087;-78
2021/04/21 09:15:58;;;;;;;43.17;27.38;;;;;;;11.36;68.14;101668.78;5033849;28;20441;-78
2021/04/21 09:18:31;;;;;;;37.83;25.50;;;;;;;11.29;69.00;101663.22;5045105;28;20048;-76
2021/04/21 09:21:01;;;;;;;39.60;25.23;;;;;;;11.43;68.54;101668.16;5070848;28;20036;-76
2021/04/21 09:23:47;;;;;;;35.25;23.25;;;;;;;11.54;67.53;101675.09;5038613;28;20391;-77
2021/04/21 09:26:21;;;;;;;37.58;22.13;;;;;;;11.90;67.12;101662.44;5014207;28;20042;-76
2021/04/21 09:28:49;;;;;;;36.58;21.45;;;;;;;12.17;66.48;101661.03;5002005;28;20128;-75
2021/04/21 09:31:23;;;;;;;37.38;21.95;;;;;;;12.40;65.10;101666.88;5050227;28;20120;-76
2021/04/21 09:34:12;;;;;;;36.13;21.90;;;;;;;12.48;64.55;101667.03;5014244;28;20426;-79
2021/04/21 09:36:43;;;;;;;33.72;21.60;;;;;;;12.34;64.79;101668.25;4998650;28;20072;-77
2021/04/21 09:39:16;;;;;;;33.67;21.92;;;;;;;12.41;65.17;101665.91;5013999;28;20539;-78
2021/04/21 09:41:43;;;;;;;37.72;22.08;;;;;;;12.23;65.91;101665.75;5050817;28;20045;-78
2021/04/21 09:44:11;;;;;;;35.88;21.60;;;;;;;12.24;64.41;101667.38;5051850;28;20086;-77
2021/04/21 09:46:42;;;;;;;34.35;21.15;;;;;;;11.76;66.25;101657.53;5033147;28;20052;-79
2021/04/21 09:49:32;;;;;;;34.33;22.00;;;;;;;11.73;66.63;101666.47;5016378;28;20102;-77
2021/04/21 09:52:00;;;;;;;36.05;22.52;;;;;;;11.51;68.44;101664.88;5032657;28;20038;-75
2021/04/21 09:54:38;;;;;;;35.70;22.23;;;;;;;11.51;67.28;101662.25;5033678;28;20053;-79
2021/04/21 09:57:12;;;;;;;37.13;22.50;;;;;;;11.43;67.27;101667.28;5049163;28;20088;-80
2021/04/21 09:59:38;;;;;;;35.97;22.23;;;;;;;11.00;69.68;101665.63;5058642;28;20053;-79
2021/04/21 10:02:34;;;;;;;34.63;21.88;;;;;;;11.19;69.01;101671.03;5043763;28;20049;-77
2021/04/21 10:05:23;;;;;;;40.47;21.83;;;;;;;11.22;69.55;101662.06;5067431;28;20041;-79
2021/04/21 10:08:11;;;;;;;33.58;20.75;;;;;;;11.13;68.66;101653.16;5034542;28;20048;-78
2021/04/21 10:10:38;;;;;;;34.92;20.65;;;;;;;10.97;69.28;101652.78;5050954;28;20132;-77
2021/04/21 10:13:20;;;;;;;33.63;19.50;;;;;;;11.07;69.56;101648.41;5033222;28;20060;-79
2021/04/21 10:15:48;;;;;;;31.17;19.15;;;;;;;10.95;70.27;101657.31;5016085;28;20040;-77
2021/04/21 10:18:14;;;;;;;32.38;18.10;;;;;;;11.08;69.24;101653.53;5048165;28;20044;-77
2021/04/21 10:20:42;;;;;;;33.22;19.15;;;;;;;11.09;68.93;101651.75;5043890;28;20464;-77
2021/04/21 10:23:08;;;;;;;35.40;18.45;;;;;;;11.60;66.61;101648.31;5048565;28;20052;-79
2021/04/21 10:25:35;;;;;;;33.28;18.90;;;;;;;12.11;67.64;101651.88;5015283;28;20037;-76
2021/04/21 10:28:01;;;;;;;29.67;17.27;;;;;;;12.26;64.85;101660.19;5049540;28;20052;-77
2021/04/21 10:30:29;;;;;;;28.25;16.33;;;;;;;12.26;65.05;101666.31;5029468;28;20045;-79
2021/04/21 10:32:54;;;;;;;23.08;14.52;;;;;;;12.15;63.71;101661.16;5012811;28;20057;-76
2021/04/21 10:35:20;;;;;;;27.30;15.10;;;;;;;12.07;63.65;101664.47;5016800;28;20037;-79
2021/04/21 10:37:46;;;;;;;25.08;14.13;;;;;;;12.05;64.79;101655.88;5048730;28;20077;-77
2021/04/21 10:40:23;;;;;;;22.48;14.10;;;;;;;11.86;64.05;101661.84;5046814;28;20040;-76
2021/04/21 10:42:51;;;;;;;27.20;14.10;;;;;;;12.00;65.11;101660.69;5026939;28;20069;-74
2021/04/21 10:45:20;;;;;;;24.05;14.52;;;;;;;12.03;64.34;101664.84;5015076;28;20037;-76
2021/04/21 10:47:48;;;;;;;19.08;13.77;;;;;;;11.78;62.98;101668.75;5039690;28;20060;-77
2021/04/21 10:50:33;;;;;;;21.10;13.20;;;;;;;11.38;64.62;101667.69;5044367;28;20487;-76
2021/04/21 10:52:58;;;;;;;16.27;11.13;;;;;;;11.18;65.47;101669.34;5012838;28;20045;-77
2021/04/21 10:55:34;;;;;;;15.27;8.70;;;;;;;11.05;64.08;101674.78;5031222;28;20128;-77
2021/04/21 10:58:03;;;;;;;13.45;7.95;;;;;;;10.89;65.20;101669.97;5045685;28;20044;-79
2021/04/21 11:00:31;;;;;;;10.13;6.53;;;;;;;11.05;65.64;101671.34;5047553;28;20154;-78
2021/04/21 11:02:59;;;;;;;15.25;7.05;;;;;;;11.40;65.25;101671.03;5014786;28;20057;-75
2021/04/21 11:05:37;;;;;;;11.25;5.80;;;;;;;12.23;63.05;101671.00;5027398;28;20029;-78
2021/04/21 11:08:09;;;;;;;12.02;4.68;;;;;;;13.12;59.30;101668.28;5048656;28;20044;-76
2021/04/21 11:10:40;;;;;;;9.82;3.83;;;;;;;13.43;57.35;101670.78;5031237;28;20049;-77
2021/04/21 11:13:08;;;;;;;9.32;3.88;;;;;;;13.51;55.87;101670.88;5030050;28;20528;-77
2021/04/21 11:15:49;;;;;;;9.55;3.70;;;;;;;13.95;56.23;101671.13;5018843;28;20406;-77
2021/04/21 11:18:22;;;;;;;8.57;3.25;;;;;;;13.77;54.79;101665.78;5051837;28;20033;-76
2021/04/21 11:20:48;;;;;;;9.38;3.65;;;;;;;13.35;54.88;101663.53;5015928;28;20060;-80
2021/04/21 11:23:52;;;;;;;9.30;3.30;;;;;;;13.14;54.31;101666.34;5034376;28;20040;-78
2021/04/21 11:26:23;;;;;;;;;;;;;;;12.69;56.23;101663.44;5067733;28;20084;-81
2021/04/21 11:29:19;;;;;;;11.38;2.95;;;;;;;12.73;56.84;101675.34;5051945;28;19978;-76
2021/04/21 11:31:45;;;;;;;7.75;3.00;;;;;;;13.00;55.44;101679.94;5050856;28;20045;-77
2021/04/21 11:34:27;;;;;;;9.10;2.63;;;;;;;12.90;56.54;101669.41;5053119;28;20051;-77
2021/04/21 11:36:54;;;;;;;7.25;2.50;;;;;;;12.79;55.49;101677.44;5033418;28;20057;-75
2021/04/21 11:39:52;;;;;;;8.90;2.50;;;;;;;12.77;54.90;101677.59;5033371;28;20572;-79
2021/04/21 11:42:24;;;;;;;6.22;2.40;;;;;;;12.78;53.40;101667.88;5031878;28;20053;-74
2021/04/21 11:44:49;;;;;;;7.20;2.10;;;;;;;13.23;52.93;101672.56;5051565;28;20037;-76
2021/04/21 11:47:31;;;;;;;8.80;1.80;;;;;;;13.90;52.85;101660.19;5034299;28;20059;-76
2021/04/21 11:50:00;;;;;;;11.40;2.00;;;;;;;14.28;49.54;101658.31;5033848;28;20041;-75